createdAt,value
2016-08-29T00:00:44.984Z,57.62
2016-08-29T00:01:44.934Z,57.53
2016-08-29T00:02:44.896Z,58.11
2016-08-29T00:03:45.454Z,57.82
2016-08-29T00:04:44.813Z,58.01
2016-08-29T00:05:44.765Z,58.2
2016-08-29T00:06:44.714Z,57.53
2016-08-29T00:07:43.973Z,57.62
2016-08-29T00:08:44.819Z,57.62
2016-08-29T00:09:43.883Z,58.47
2016-08-29T00:10:44.743Z,58.37
2016-08-29T00:11:44.498Z,58.97
2016-08-29T00:12:44.505Z,58.85
2016-08-29T00:13:44.422Z,58.75
2016-08-29T00:14:44.403Z,58.56
2016-08-29T00:15:44.529Z,58.65
2016-08-29T00:16:44.283Z,58.56
2016-08-29T00:17:43.730Z,59.43
2016-08-29T00:18:44.193Z,59.33
2016-08-29T00:19:44.145Z,59.04
2016-08-29T00:20:44.093Z,59.14
2016-08-29T00:21:44.064Z,59.23
2016-08-29T00:22:44.025Z,59.04
2016-08-29T00:23:44.174Z,58.95
2016-08-29T00:24:44.126Z,59.33
2016-08-29T00:25:43.883Z,59.04
2016-08-29T00:26:43.837Z,58.85
2016-08-29T00:27:43.799Z,59.04
2016-08-29T00:28:43.052Z,59.33
2016-08-29T00:29:43.710Z,59.14
2016-08-29T00:30:43.671Z,59.33
2016-08-29T00:31:43.867Z,59.23
2016-08-29T00:32:43.573Z,59.52
2016-08-29T00:33:42.863Z,59.43
2016-08-29T00:34:43.504Z,59.14
2016-08-29T00:35:43.445Z,59.04
2016-08-29T00:36:43.393Z,58.95
2016-08-29T00:37:43.353Z,58.75
2016-08-29T00:38:43.506Z,58.65
2016-08-29T00:39:43.262Z,58.75
2016-08-29T00:40:43.224Z,59.23
2016-08-29T00:41:43.374Z,59.23
2016-08-29T00:42:43.130Z,59.33
2016-08-29T00:43:43.294Z,59.33
2016-08-29T00:44:43.053Z,58.75
2016-08-29T00:45:42.742Z,58.65
2016-08-29T00:46:43.160Z,58.65
2016-08-29T00:47:42.913Z,58.75
2016-08-29T00:48:42.941Z,58.65
2016-08-29T00:49:42.823Z,58.85
2016-08-29T00:50:42.774Z,58.65
2016-08-29T00:51:42.044Z,58.95
2016-08-29T00:52:42.694Z,58.85
2016-08-29T00:53:42.652Z,58.85
2016-08-29T00:54:42.602Z,58.85
2016-08-29T00:55:42.565Z,58.95
2016-08-29T00:56:42.514Z,58.65
2016-08-29T00:57:42.873Z,58.75
2016-08-29T00:58:42.443Z,58.65
2016-08-29T00:59:42.586Z,58.95
2016-08-29T01:00:42.334Z,58.56
2016-08-29T01:01:42.306Z,58.95
2016-08-29T01:02:42.269Z,58.75
2016-08-29T01:03:42.204Z,58.47
2016-08-29T01:04:42.166Z,59.33
2016-08-29T01:05:42.115Z,59.3
2016-08-29T01:06:42.075Z,58.95
2016-08-29T01:07:42.235Z,59.2
2016-08-29T01:08:41.994Z,59.4
2016-08-29T01:09:41.441Z,59.3
2016-08-29T01:10:41.906Z,59.4
2016-08-29T01:11:41.890Z,59.11
2016-08-29T01:12:41.110Z,59.49
2016-08-29T01:13:41.075Z,59.69
2016-08-29T01:14:41.935Z,59.78
2016-08-29T01:15:41.676Z,60.07
2016-08-29T01:16:41.636Z,59.69
2016-08-29T01:17:41.594Z,59.97
2016-08-29T01:18:41.547Z,59.88
2016-08-29T01:19:41.507Z,59.97
2016-08-29T01:20:40.752Z,59.88
2016-08-29T01:21:41.415Z,59.69
2016-08-29T01:22:41.367Z,59.69
2016-08-29T01:23:41.326Z,59.78
2016-08-29T01:24:41.286Z,59.97
2016-08-29T01:25:41.241Z,60.07
2016-08-29T01:26:41.198Z,59.88
2016-08-29T01:27:41.562Z,59.69
2016-08-29T01:28:41.115Z,59.78
2016-08-29T01:29:41.265Z,59.78
2016-08-29T01:30:41.223Z,59.49
2016-08-29T01:31:40.965Z,59.69
2016-08-29T01:32:40.937Z,59.59
2016-08-29T01:33:41.305Z,59.69
2016-08-29T01:34:41.032Z,59.88
2016-08-29T01:35:40.808Z,60.17
2016-08-29T01:36:40.744Z,59.78
2016-08-29T01:37:40.711Z,60.17
2016-08-29T01:38:41.067Z,60.36
2016-08-29T01:39:40.626Z,60.27
2016-08-29T01:40:40.575Z,60.07
2016-08-29T01:41:40.521Z,60.36
2016-08-29T01:42:40.487Z,60.36
2016-08-29T01:43:40.455Z,60.84
2016-08-29T01:44:40.597Z,60.52
2016-08-29T01:45:40.356Z,60.42
2016-08-29T01:46:40.318Z,60.91
2016-08-29T01:47:40.266Z,61.1
2016-08-29T01:48:40.226Z,60.81
2016-08-29T01:49:40.411Z,60.55
2016-08-29T01:50:39.636Z,60.84
2016-08-29T01:51:40.117Z,60.84
2016-08-29T01:52:40.046Z,60.84
2016-08-29T01:53:40.205Z,60.81
2016-08-29T01:54:39.953Z,60.55
2016-08-29T01:55:40.116Z,60.94
2016-08-29T01:56:39.876Z,60.07
2016-08-29T01:57:39.822Z,60.55
2016-08-29T01:58:39.785Z,60.84
2016-08-29T01:59:39.728Z,60.55
2016-08-29T02:00:39.895Z,60.36
2016-08-29T02:01:39.852Z,60.55
2016-08-29T02:02:39.692Z,60.36
2016-08-29T02:03:40.163Z,61.13
2016-08-29T02:04:39.507Z,61.13
2016-08-29T02:05:39.463Z,61.13
2016-08-29T02:06:39.424Z,60.91
2016-08-29T02:07:39.584Z,61
2016-08-29T02:08:39.332Z,61.29
2016-08-29T02:09:39.292Z,60.91
2016-08-29T02:10:39.252Z,61.13
2016-08-29T02:11:38.499Z,61.13
2016-08-29T02:12:39.157Z,61.04
2016-08-29T02:13:39.133Z,60.55
2016-08-29T02:14:39.092Z,61.04
2016-08-29T02:15:39.022Z,61.32
2016-08-29T02:16:38.981Z,61.49
2016-08-29T02:17:38.935Z,61.58
2016-08-29T02:18:38.895Z,61.32
2016-08-29T02:19:38.854Z,60.84
2016-08-29T02:20:38.806Z,61.22
2016-08-29T02:21:38.766Z,61.29
2016-08-29T02:22:38.714Z,61.29
2016-08-29T02:23:38.673Z,61.39
2016-08-29T02:24:38.623Z,61.29
2016-08-29T02:25:38.584Z,61.58
2016-08-29T02:26:38.743Z,62.06
2016-08-29T02:27:38.495Z,61.77
2016-08-29T02:28:38.449Z,61.87
2016-08-29T02:29:38.404Z,61.87
2016-08-29T02:30:37.654Z,62.26
2016-08-29T02:31:38.314Z,61.87
2016-08-29T02:32:38.285Z,61.29
2016-08-29T02:33:38.309Z,61.29
2016-08-29T02:34:38.185Z,61.19
2016-08-29T02:35:38.135Z,61.61
2016-08-29T02:36:38.104Z,61.32
2016-08-29T02:37:38.056Z,61.32
2016-08-29T02:38:38.004Z,61.68
2016-08-29T02:39:37.965Z,62.06
2016-08-29T02:40:38.114Z,61.97
2016-08-29T02:41:37.177Z,61.68
2016-08-29T02:42:37.841Z,61.77
2016-08-29T02:43:37.804Z,61.29
2016-08-29T02:44:37.065Z,61.58
2016-08-29T02:45:37.909Z,62.06
2016-08-29T02:46:37.651Z,61.68
2016-08-29T02:47:37.806Z,62.35
2016-08-29T02:48:37.766Z,62.45
2016-08-29T02:49:37.526Z,62.45
2016-08-29T02:50:37.470Z,62.35
2016-08-29T02:51:37.636Z,62.45
2016-08-29T02:52:37.396Z,62.45
2016-08-29T02:53:37.358Z,62.45
2016-08-29T02:54:37.297Z,62.26
2016-08-29T02:55:37.244Z,62.64
2016-08-29T02:56:37.216Z,63.18
2016-08-29T02:57:37.357Z,63.09
2016-08-29T02:58:37.118Z,62.71
2016-08-29T02:59:36.782Z,63.18
2016-08-29T03:00:37.235Z,62.74
2016-08-29T03:01:36.984Z,62.26
2016-08-29T03:02:37.146Z,62.64
2016-08-29T03:03:36.888Z,62.35
2016-08-29T03:04:36.844Z,62.35
2016-08-29T03:05:36.092Z,62.54
2016-08-29T03:06:36.755Z,62.45
2016-08-29T03:07:36.708Z,62.35
2016-08-29T03:08:36.674Z,62.35
2016-08-29T03:09:36.846Z,62.54
2016-08-29T03:10:36.584Z,62.64
2016-08-29T03:11:36.554Z,63.41
2016-08-29T03:12:36.538Z,62.9
2016-08-29T03:13:36.452Z,63.41
2016-08-29T03:14:36.403Z,63.09
2016-08-29T03:15:36.373Z,62.54
2016-08-29T03:16:35.605Z,62.45
2016-08-29T03:17:36.273Z,62.64
2016-08-29T03:18:36.231Z,63.02
2016-08-29T03:19:36.174Z,63.12
2016-08-29T03:20:36.127Z,63.22
2016-08-29T03:21:36.111Z,63.22
2016-08-29T03:22:36.044Z,62.64
2016-08-29T03:23:36.200Z,62.26
2016-08-29T03:24:36.161Z,62.64
2016-08-29T03:25:35.924Z,63.22
2016-08-29T03:26:35.892Z,63.67
2016-08-29T03:27:35.823Z,63.57
2016-08-29T03:28:35.271Z,63.57
2016-08-29T03:29:35.735Z,63.57
2016-08-29T03:30:35.683Z,63.67
2016-08-29T03:31:35.637Z,63.57
2016-08-29T03:32:35.604Z,63.76
2016-08-29T03:33:35.594Z,63.76
2016-08-29T03:34:35.504Z,64.15
2016-08-29T03:35:35.475Z,63.57
2016-08-29T03:36:35.619Z,63.57
2016-08-29T03:37:35.383Z,62.99
2016-08-29T03:38:35.324Z,63.67
2016-08-29T03:39:35.284Z,63.7
2016-08-29T03:40:35.245Z,63.67
2016-08-29T03:41:35.183Z,63.48
2016-08-29T03:42:35.142Z,63.76
2016-08-29T03:43:35.111Z,63.67
2016-08-29T03:44:35.065Z,63.76
2016-08-29T03:45:35.045Z,63.76
2016-08-29T03:46:34.975Z,63.95
2016-08-29T03:47:34.926Z,64.05
2016-08-29T03:48:34.886Z,64.05
2016-08-29T03:49:34.835Z,64.63
2016-08-29T03:50:34.998Z,63.76
2016-08-29T03:51:34.744Z,64.63
2016-08-29T03:52:34.908Z,64.05
2016-08-29T03:53:34.656Z,63.86
2016-08-29T03:54:34.814Z,64.53
2016-08-29T03:55:34.829Z,63.95
2016-08-29T03:56:34.516Z,64.05
2016-08-29T03:57:34.500Z,64.05
2016-08-29T03:58:34.438Z,64.05
2016-08-29T03:59:34.394Z,63.95
2016-08-29T04:00:34.346Z,63.95
2016-08-29T04:01:33.596Z,63.79
2016-08-29T04:02:34.253Z,63.7
2016-08-29T04:03:34.205Z,63.7
2016-08-29T04:04:34.156Z,63.31
2016-08-29T04:05:34.130Z,63.51
2016-08-29T04:06:34.075Z,63.22
2016-08-29T04:07:34.023Z,63.02
2016-08-29T04:08:33.286Z,63.15
2016-08-29T04:09:34.155Z,63.22
2016-08-29T04:10:33.994Z,63.22
2016-08-29T04:11:33.863Z,63.44
2016-08-29T04:12:34.006Z,63.02
2016-08-29T04:13:33.767Z,63.02
2016-08-29T04:14:33.912Z,63.41
2016-08-29T04:15:33.671Z,63.6
2016-08-29T04:16:33.615Z,63.6
2016-08-29T04:17:33.593Z,63.12
2016-08-29T04:18:33.545Z,62.83
2016-08-29T04:19:33.529Z,63.12
2016-08-29T04:20:33.443Z,63.34
2016-08-29T04:21:32.721Z,62.67
2016-08-29T04:22:33.377Z,62.77
2016-08-29T04:23:33.316Z,62.87
2016-08-29T04:24:33.274Z,62.77
2016-08-29T04:25:33.225Z,62.57
2016-08-29T04:26:33.185Z,63.06
2016-08-29T04:27:33.135Z,63.34
2016-08-29T04:28:33.294Z,63.25
2016-08-29T04:29:33.244Z,62.77
2016-08-29T04:30:33.004Z,62.29
2016-08-29T04:31:32.459Z,62.19
2016-08-29T04:32:32.914Z,62.57
2016-08-29T04:33:33.126Z,62.48
2016-08-29T04:34:32.824Z,62.48
2016-08-29T04:35:32.782Z,62.48
2016-08-29T04:36:32.745Z,62.38
2016-08-29T04:37:32.895Z,62.67
2016-08-29T04:38:32.655Z,62.7
2016-08-29T04:39:32.606Z,62.48
2016-08-29T04:40:32.563Z,62.48
2016-08-29T04:41:32.520Z,62.67
2016-08-29T04:42:32.473Z,62.87
2016-08-29T04:43:32.432Z,62.67
2016-08-29T04:44:32.386Z,62.96
2016-08-29T04:45:32.543Z,62.67
2016-08-29T04:46:32.301Z,62.57
2016-08-29T04:47:31.544Z,62.48
2016-08-29T04:48:32.230Z,62.41
2016-08-29T04:49:31.464Z,62.6
2016-08-29T04:50:32.122Z,62.22
2016-08-29T04:51:32.071Z,62.12
2016-08-29T04:52:32.117Z,62.8
2016-08-29T04:53:31.282Z,62.22
2016-08-29T04:54:31.239Z,62.32
2016-08-29T04:55:31.892Z,62.32
2016-08-29T04:56:31.845Z,62.29
2016-08-29T04:57:31.822Z,62.41
2016-08-29T04:58:31.767Z,62.41
2016-08-29T04:59:31.028Z,62.03
2016-08-29T05:00:31.675Z,62.22
2016-08-29T05:01:31.631Z,62.12
2016-08-29T05:02:31.583Z,62.51
2016-08-29T05:03:31.542Z,62.8
2016-08-29T05:04:31.494Z,62.22
2016-08-29T05:05:31.503Z,62.8
2016-08-29T05:06:31.609Z,62.67
2016-08-29T05:07:31.370Z,63.25
2016-08-29T05:08:31.325Z,63.44
2016-08-29T05:09:31.283Z,63.64
2016-08-29T05:10:31.236Z,63.34
2016-08-29T05:11:31.192Z,63.06
2016-08-29T05:12:31.143Z,63.15
2016-08-29T05:13:31.104Z,63.06
2016-08-29T05:14:31.253Z,63.09
2016-08-29T05:15:31.016Z,63.34
2016-08-29T05:16:30.970Z,63.34
2016-08-29T05:17:30.926Z,63.82
2016-08-29T05:18:30.883Z,63.73
2016-08-29T05:19:30.139Z,63.15
2016-08-29T05:20:30.805Z,63.44
2016-08-29T05:21:30.752Z,63.73
2016-08-29T05:22:30.902Z,63.54
2016-08-29T05:23:30.666Z,63.54
2016-08-29T05:24:30.617Z,63.44
2016-08-29T05:25:30.573Z,63.73
2016-08-29T05:26:30.574Z,63.64
2016-08-29T05:27:30.484Z,63.64
2016-08-29T05:28:30.443Z,63.82
2016-08-29T05:29:30.392Z,63.64
2016-08-29T05:30:30.425Z,63.64
2016-08-29T05:31:30.294Z,63.92
2016-08-29T05:32:30.271Z,63.64
2016-08-29T05:33:30.219Z,63.73
2016-08-29T05:34:30.186Z,64.31
2016-08-29T05:35:30.133Z,63.92
2016-08-29T05:36:30.078Z,64.31
2016-08-29T05:37:30.044Z,63.64
2016-08-29T05:38:29.995Z,63.82
2016-08-29T05:39:29.954Z,64.21
2016-08-29T05:40:29.905Z,64.21
2016-08-29T05:41:30.061Z,64.59
2016-08-29T05:42:29.820Z,64.98
2016-08-29T05:43:29.775Z,64.98
2016-08-29T05:44:29.724Z,64.89
2016-08-29T05:45:29.684Z,65.27
2016-08-29T05:46:30.054Z,65.24
2016-08-29T05:47:29.593Z,65.37
2016-08-29T05:48:29.554Z,65.24
2016-08-29T05:49:29.506Z,64.59
2016-08-29T05:50:29.466Z,64.5
2016-08-29T05:51:29.425Z,64.89
2016-08-29T05:52:29.374Z,64.89
2016-08-29T05:53:29.331Z,64.79
2016-08-29T05:54:29.282Z,65.37
2016-08-29T05:55:29.435Z,64.79
2016-08-29T05:56:29.195Z,64.89
2016-08-29T05:57:29.357Z,64.98
2016-08-29T05:58:28.407Z,64.69
2016-08-29T05:59:29.067Z,65.27
2016-08-29T06:00:29.024Z,65.37
2016-08-29T06:01:28.990Z,65.56
2016-08-29T06:02:28.236Z,65.72
2016-08-29T06:03:28.884Z,65.46
2016-08-29T06:04:28.864Z,65.27
2016-08-29T06:05:28.855Z,65.27
2016-08-29T06:06:28.751Z,65.37
2016-08-29T06:07:28.705Z,65.27
2016-08-29T06:08:28.668Z,65.56
2016-08-29T06:09:28.614Z,65.66
2016-08-29T06:10:27.889Z,65.66
2016-08-29T06:11:28.031Z,65.56
2016-08-29T06:12:27.787Z,65.66
2016-08-29T06:13:28.455Z,65.75
2016-08-29T06:14:28.395Z,66.14
2016-08-29T06:15:28.353Z,66.04
2016-08-29T06:16:28.304Z,65.94
2016-08-29T06:17:27.564Z,66.04
2016-08-29T06:18:28.222Z,66.14
2016-08-29T06:19:28.176Z,65.75
2016-08-29T06:20:28.348Z,66.04
2016-08-29T06:21:28.093Z,66.04
2016-08-29T06:22:28.044Z,66.04
2016-08-29T06:23:27.994Z,66.14
2016-08-29T06:24:27.954Z,65.94
2016-08-29T06:25:27.918Z,66.04
2016-08-29T06:26:28.064Z,66.24
2016-08-29T06:27:27.823Z,66.24
2016-08-29T06:28:27.780Z,65.94
2016-08-29T06:29:27.735Z,66.24
2016-08-29T06:30:27.944Z,66.04
2016-08-29T06:31:27.843Z,66.24
2016-08-29T06:32:27.594Z,66.14
2016-08-29T06:33:26.844Z,66.24
2016-08-29T06:34:27.519Z,65.66
2016-08-29T06:35:27.464Z,65.46
2016-08-29T06:36:27.424Z,65.66
2016-08-29T06:37:27.374Z,65.85
2016-08-29T06:38:26.645Z,65.69
2016-08-29T06:39:27.294Z,65.37
2016-08-29T06:40:27.243Z,65.75
2016-08-29T06:41:27.188Z,65.66
2016-08-29T06:42:27.351Z,65.85
2016-08-29T06:43:27.307Z,65.66
2016-08-29T06:44:27.268Z,66.14
2016-08-29T06:45:27.112Z,66.33
2016-08-29T06:46:27.178Z,65.75
2016-08-29T06:47:26.245Z,65.66
2016-08-29T06:48:26.889Z,65.59
2016-08-29T06:49:26.163Z,65.3
2016-08-29T06:50:27.030Z,65.3
2016-08-29T06:51:27.166Z,64.92
2016-08-29T06:52:26.946Z,64.34
2016-08-29T06:53:26.890Z,64.53
2016-08-29T06:54:26.902Z,64.34
2016-08-29T06:55:26.083Z,64.92
2016-08-29T06:56:26.544Z,65.01
2016-08-29T06:57:27.507Z,64.63
2016-08-29T06:58:26.458Z,64.05
2016-08-29T06:59:26.484Z,64.53
2016-08-29T07:00:26.375Z,64.15
2016-08-29T07:01:25.854Z,64.25
2016-08-29T07:02:26.301Z,63.67
2016-08-29T07:03:26.672Z,64.05
2016-08-29T07:04:25.486Z,64.15
2016-08-29T07:05:26.145Z,64.43
2016-08-29T07:06:26.293Z,64.05
2016-08-29T07:07:26.068Z,64.15
2016-08-29T07:08:26.225Z,63.95
2016-08-29T07:09:26.025Z,63.67
2016-08-29T07:10:25.924Z,63.79
2016-08-29T07:11:25.882Z,63.95
2016-08-29T07:12:25.855Z,63.89
2016-08-29T07:13:25.086Z,64.05
2016-08-29T07:14:25.763Z,63.67
2016-08-29T07:15:25.730Z,63.7
2016-08-29T07:16:25.693Z,63.6
2016-08-29T07:17:25.822Z,63.7
2016-08-29T07:18:25.765Z,63.6
2016-08-29T07:19:25.532Z,63.5
2016-08-29T07:20:26.099Z,63.21
2016-08-29T07:21:25.450Z,63.7
2016-08-29T07:22:25.403Z,63.7
2016-08-29T07:23:25.344Z,63.31
2016-08-29T07:24:25.316Z,63.5
2016-08-29T07:25:25.338Z,63.31
2016-08-29T07:26:25.347Z,63.21
2016-08-29T07:27:24.481Z,62.83
2016-08-29T07:28:24.428Z,62.73
2016-08-29T07:29:24.398Z,62.35
2016-08-29T07:30:25.455Z,62.54
2016-08-29T07:31:25.425Z,62.25
2016-08-29T07:32:25.182Z,62.28
2016-08-29T07:33:24.217Z,62.06
2016-08-29T07:34:25.076Z,62.18
2016-08-29T07:35:24.833Z,61.9
2016-08-29T07:36:24.841Z,61.71
2016-08-29T07:37:24.973Z,61.61
2016-08-29T07:38:23.999Z,61.41
2016-08-29T07:39:25.052Z,61.41
2016-08-29T07:40:24.828Z,61.22
2016-08-29T07:41:25.413Z,61.13
2016-08-29T07:42:24.514Z,61.13
2016-08-29T07:43:23.802Z,61.32
2016-08-29T07:44:24.446Z,60.64
2016-08-29T07:45:24.423Z,60.58
2016-08-29T07:46:23.683Z,60.19
2016-08-29T07:47:24.398Z,59.9
2016-08-29T07:48:24.287Z,60
2016-08-29T07:49:24.274Z,59.9
2016-08-29T07:50:23.469Z,59.61
2016-08-29T07:51:24.470Z,59.23
2016-08-29T07:52:23.393Z,58.97
2016-08-29T07:53:24.151Z,58.48
2016-08-29T07:54:24.242Z,58.68
2016-08-29T07:55:23.960Z,58.1
2016-08-29T07:56:23.975Z,57.9
2016-08-29T07:57:23.872Z,57.71
2016-08-29T07:58:23.846Z,57.71
2016-08-29T07:59:24.421Z,57.84
2016-08-29T08:00:23.779Z,57.84
2016-08-29T08:01:24.009Z,57.9
2016-08-29T08:02:23.738Z,57.81
2016-08-29T08:03:23.632Z,58.1
2016-08-29T08:04:24.043Z,58.1
2016-08-29T08:05:23.350Z,57.9
2016-08-29T08:06:23.711Z,57.81
2016-08-29T08:07:23.646Z,57.71
2016-08-29T08:08:22.919Z,57.52
2016-08-29T08:09:23.364Z,58
2016-08-29T08:10:24.440Z,57.32
2016-08-29T08:11:23.453Z,57.35
2016-08-29T08:12:23.487Z,58
2016-08-29T08:13:23.210Z,58
2016-08-29T08:14:22.696Z,58.58
2016-08-29T08:15:22.614Z,58.65
2016-08-29T08:16:23.256Z,58.36
2016-08-29T08:17:23.438Z,58.55
2016-08-29T08:18:23.012Z,58
2016-08-29T08:19:22.243Z,58.68
2016-08-29T08:20:22.886Z,58.45
2016-08-29T08:21:22.864Z,58.75
2016-08-29T08:22:22.314Z,58.94
2016-08-29T08:23:22.769Z,58.94
2016-08-29T08:24:22.965Z,58.84
2016-08-29T08:25:22.703Z,58.94
2016-08-29T08:26:22.659Z,59.42
2016-08-29T08:27:22.602Z,59.42
2016-08-29T08:28:22.566Z,58.91
2016-08-29T08:29:22.534Z,59.32
2016-08-29T08:30:23.020Z,59.97
2016-08-29T08:31:22.504Z,60.93
2016-08-29T08:32:21.673Z,61.22
2016-08-29T08:33:22.940Z,62.06
2016-08-29T08:34:22.329Z,62.54
2016-08-29T08:35:26.827Z,62.63
2016-08-29T08:36:23.924Z,62.93
2016-08-29T08:37:22.148Z,63.31
2016-08-29T08:38:22.118Z,63.31
2016-08-29T08:39:22.073Z,63.41
2016-08-29T08:40:22.046Z,63.6
2016-08-29T08:41:21.984Z,63.89
2016-08-29T08:42:21.940Z,64.18
2016-08-29T08:43:21.901Z,64.56
2016-08-29T08:44:22.040Z,64.56
2016-08-29T08:45:21.804Z,65.4
2016-08-29T08:46:21.804Z,66.17
2016-08-29T08:47:21.865Z,67.13
2016-08-29T08:48:21.784Z,68.19
2016-08-29T08:49:21.622Z,68.48
2016-08-29T08:50:21.568Z,69.31
2016-08-29T08:51:20.839Z,69.89
2016-08-29T08:52:21.607Z,70.56
2016-08-29T08:53:21.455Z,70.95
2016-08-29T08:54:20.713Z,71.53
2016-08-29T08:55:21.357Z,71.4
2016-08-29T08:56:21.314Z,71.59
2016-08-29T08:57:21.271Z,72.88
2016-08-29T08:58:21.218Z,73.61
2016-08-29T08:59:20.525Z,74.48
2016-08-29T09:00:20.613Z,75.54
2016-08-29T09:01:21.130Z,75.54
2016-08-29T09:02:21.338Z,75.98
2016-08-29T09:03:21.077Z,76.46
2016-08-29T09:04:20.949Z,76.56
2016-08-29T09:05:21.040Z,76.84
2016-08-29T09:06:20.747Z,77.51
2016-08-29T09:07:20.124Z,77.81
2016-08-29T09:08:20.770Z,78.48
2016-08-29T09:09:20.939Z,78.86
2016-08-29T09:10:20.698Z,78.86
2016-08-29T09:11:20.375Z,79.44
2016-08-29T09:12:21.788Z,80.02
2016-08-29T09:13:20.928Z,79.35
2016-08-29T09:14:20.552Z,79.82
2016-08-29T09:16:20.459Z,79.73
2016-08-29T09:17:19.657Z,79.82
2016-08-29T09:18:20.894Z,80.11
2016-08-29T09:19:19.784Z,80.02
2016-08-29T09:20:20.214Z,80.02
2016-08-29T09:21:20.374Z,79.73
2016-08-29T09:22:20.138Z,79.86
2016-08-29T09:23:20.095Z,80.06
2016-08-29T09:24:20.243Z,79.1
2016-08-29T09:25:19.986Z,78.9
2016-08-29T09:26:19.480Z,78.9
2016-08-29T09:27:19.299Z,78.9
2016-08-29T09:28:20.055Z,79
2016-08-29T09:29:20.005Z,78.9
2016-08-29T09:30:19.758Z,79
2016-08-29T09:31:19.787Z,78.52
2016-08-29T09:32:19.661Z,78.75
2016-08-29T09:33:19.649Z,78.46
2016-08-29T09:34:19.645Z,77.88
2016-08-29T09:35:19.544Z,77.88
2016-08-29T09:36:19.683Z,78.08
2016-08-29T09:37:19.722Z,77.88
2016-08-29T09:38:18.713Z,77.98
2016-08-29T09:39:19.560Z,77.5
2016-08-29T09:40:18.596Z,77.84
2016-08-29T09:41:19.249Z,77.65
2016-08-29T09:42:19.317Z,77.65
2016-08-29T09:43:18.871Z,78.13
2016-08-29T09:44:19.349Z,78.13
2016-08-29T09:45:18.475Z,78.33
2016-08-29T09:46:19.243Z,78.52
2016-08-29T09:47:18.989Z,78.33
2016-08-29T09:48:19.330Z,78.52
2016-08-29T09:49:19.504Z,78.52
2016-08-29T09:50:18.560Z,78.71
2016-08-29T09:51:18.100Z,79.48
2016-08-29T09:52:18.764Z,79.48
2016-08-29T09:53:18.916Z,79
2016-08-29T09:54:19.091Z,78.52
2016-08-29T09:55:18.853Z,78.61
2016-08-29T09:56:18.066Z,78.71
2016-08-29T09:57:18.522Z,79.1
2016-08-29T09:58:18.473Z,79.19
2016-08-29T09:59:18.551Z,78.52
2016-08-29T10:00:18.795Z,78.42
2016-08-29T10:01:18.377Z,78.71
2016-08-29T10:02:17.801Z,78.71
2016-08-29T10:03:17.785Z,78.81
2016-08-29T10:04:18.219Z,79
2016-08-29T10:05:18.193Z,78.9
2016-08-29T10:06:17.426Z,78.67
2016-08-29T10:07:18.080Z,79.15
2016-08-29T10:08:18.023Z,79.63
2016-08-29T10:09:17.297Z,79.48
2016-08-29T10:10:17.230Z,79.63
2016-08-29T10:11:17.895Z,80.02
2016-08-29T10:12:17.985Z,79.92
2016-08-29T10:13:17.825Z,79.35
2016-08-29T10:14:17.754Z,79.19
2016-08-29T10:15:17.701Z,79.96
2016-08-29T10:16:17.733Z,80.06
2016-08-29T10:17:17.188Z,79.53
2016-08-29T10:18:17.638Z,79.38
2016-08-29T10:19:17.524Z,79.19
2016-08-29T10:20:17.539Z,80.15
2016-08-29T10:21:17.455Z,80.06
2016-08-29T10:22:17.655Z,80.25
2016-08-29T10:23:16.870Z,79.77
2016-08-29T10:24:17.308Z,79.96
2016-08-29T10:25:17.258Z,79.38
2016-08-29T10:26:17.215Z,79.52
2016-08-29T10:27:17.250Z,79.71
2016-08-29T10:28:17.127Z,80.44
2016-08-29T10:29:17.168Z,79.77
2016-08-29T10:30:17.269Z,79.86
2016-08-29T10:31:17.187Z,79.77
2016-08-29T10:32:17.005Z,80
2016-08-29T10:33:16.920Z,79.67
2016-08-29T10:34:16.933Z,79.48
2016-08-29T10:35:16.839Z,79.77
2016-08-29T10:36:16.757Z,80.54
2016-08-29T10:37:16.020Z,80.06
2016-08-29T10:38:16.879Z,80.06
2016-08-29T10:39:16.666Z,80.15
2016-08-29T10:40:16.896Z,79.58
2016-08-29T10:41:15.896Z,79.33
2016-08-29T10:42:16.497Z,78.75
2016-08-29T10:43:16.742Z,78.56
2016-08-29T10:44:16.388Z,78.56
2016-08-29T10:45:17.209Z,78.65
2016-08-29T10:46:15.967Z,78.56
2016-08-29T10:47:16.299Z,78.27
2016-08-29T10:48:15.543Z,77.98
2016-08-29T10:49:16.440Z,76.82
2016-08-29T10:50:16.121Z,76.63
2016-08-29T10:51:16.118Z,76.44
2016-08-29T10:52:16.126Z,75.99
2016-08-29T10:53:15.986Z,75.9
2016-08-29T10:54:15.944Z,75.61
2016-08-29T10:55:15.915Z,75.51
2016-08-29T10:56:15.144Z,75.51
2016-08-29T10:57:15.808Z,75.42
2016-08-29T10:58:15.882Z,74.84
2016-08-29T10:59:15.048Z,75.23
2016-08-29T11:00:16.334Z,75.07
2016-08-29T11:01:14.942Z,75.36
2016-08-29T11:02:15.632Z,75.23
2016-08-29T11:03:15.563Z,75.32
2016-08-29T11:04:14.927Z,74.68
2016-08-29T11:05:14.861Z,75.55
2016-08-29T11:06:14.913Z,74.3
2016-08-29T11:07:15.431Z,74.3
2016-08-29T11:08:14.720Z,73.05
2016-08-29T11:09:15.335Z,73.08
2016-08-29T11:10:15.240Z,73.08
2016-08-29T11:11:15.207Z,73.72
2016-08-29T11:12:15.156Z,72.75
2016-08-29T11:13:15.135Z,72.95
2016-08-29T11:14:14.367Z,73.14
2016-08-29T11:15:15.022Z,73.05
2016-08-29T11:16:14.975Z,73.43
2016-08-29T11:17:14.958Z,72.47
2016-08-29T11:18:14.889Z,72.66
2016-08-29T11:19:15.033Z,72.47
2016-08-29T11:20:14.795Z,72.18
2016-08-29T11:21:14.956Z,71.7
2016-08-29T11:22:15.296Z,71.31
2016-08-29T11:23:14.218Z,71.89
2016-08-29T11:24:14.626Z,71.89
2016-08-29T11:25:13.978Z,71.41
2016-08-29T11:26:14.038Z,71.41
2016-08-29T11:27:14.479Z,71.31
2016-08-29T11:28:14.447Z,71.31
2016-08-29T11:29:14.461Z,71.5
2016-08-29T11:30:14.524Z,71.41
2016-08-29T11:31:14.362Z,71.41
2016-08-29T11:32:14.286Z,71.31
2016-08-29T11:33:14.224Z,70.76
2016-08-29T11:34:14.595Z,70.67
2016-08-29T11:35:14.135Z,70.19
2016-08-29T11:36:14.096Z,69.84
2016-08-29T11:37:14.046Z,69.64
2016-08-29T11:38:14.164Z,70.13
2016-08-29T11:39:13.258Z,69.16
2016-08-29T11:40:13.927Z,68.97
2016-08-29T11:41:13.876Z,69.16
2016-08-29T11:42:13.158Z,68.97
2016-08-29T11:43:13.793Z,67.91
2016-08-29T11:44:14.223Z,68.19
2016-08-29T11:45:13.699Z,68.01
2016-08-29T11:46:13.177Z,67.55
2016-08-29T11:47:13.627Z,67.91
2016-08-29T11:48:12.866Z,67.14
2016-08-29T11:49:13.932Z,66.94
2016-08-29T11:50:13.639Z,66.49
2016-08-29T11:51:13.461Z,66.3
2016-08-29T11:52:13.387Z,65.91
2016-08-29T11:53:13.366Z,65.82
2016-08-29T11:54:13.581Z,64.95
2016-08-29T11:55:13.280Z,64.86
2016-08-29T11:56:13.838Z,64.95
2016-08-29T11:57:13.186Z,64.95
2016-08-29T11:58:13.139Z,64.18
2016-08-29T11:59:12.396Z,64.47
2016-08-29T12:00:13.183Z,64.28
2016-08-29T12:01:13.239Z,63.5
2016-08-29T12:02:12.967Z,63.79
2016-08-29T12:03:12.957Z,63.82
2016-08-29T12:04:12.185Z,63.24
2016-08-29T12:05:12.200Z,63.53
2016-08-29T12:06:12.810Z,62.86
2016-08-29T12:07:12.975Z,63.05
2016-08-29T12:08:12.719Z,62.86
2016-08-29T12:09:12.873Z,62.82
2016-08-29T12:10:12.626Z,63.6
2016-08-29T12:11:12.606Z,63.89
2016-08-29T12:12:13.008Z,64.08
2016-08-29T12:13:12.538Z,63.79
2016-08-29T12:14:12.491Z,63.79
2016-08-29T12:15:12.428Z,64.08
2016-08-29T12:16:12.373Z,63.7
2016-08-29T12:17:11.629Z,63.7
2016-08-29T12:18:12.319Z,63.89
2016-08-29T12:19:11.541Z,63.6
2016-08-29T12:20:12.286Z,63.4
2016-08-29T12:21:11.461Z,63.31
2016-08-29T12:22:12.183Z,63.12
2016-08-29T12:23:12.287Z,63.6
2016-08-29T12:24:11.540Z,63.02
2016-08-29T12:25:12.010Z,63.12
2016-08-29T12:26:11.244Z,63.02
2016-08-29T12:27:11.937Z,62.44
2016-08-29T12:28:11.867Z,62.82
2016-08-29T12:29:11.959Z,62.73
2016-08-29T12:30:11.785Z,62.63
2016-08-29T12:31:11.724Z,62.82
2016-08-29T12:32:11.781Z,62.73
2016-08-29T12:33:11.649Z,62.63
2016-08-29T12:34:11.711Z,62.54
2016-08-29T12:35:11.073Z,63.02
2016-08-29T12:36:11.764Z,63.31
2016-08-29T12:37:11.486Z,62.44
2016-08-29T12:38:10.876Z,63.02
2016-08-29T12:39:11.813Z,63.21
2016-08-29T12:40:11.361Z,63.57
2016-08-29T12:41:11.346Z,63.67
2016-08-29T12:42:11.260Z,63.4
2016-08-29T12:43:11.219Z,63.31
2016-08-29T12:44:10.497Z,63.31
2016-08-29T12:45:11.179Z,63.4
2016-08-29T12:46:10.578Z,63.21
2016-08-29T12:47:11.049Z,63.31
2016-08-29T12:48:11.004Z,63.02
2016-08-29T12:49:10.968Z,62.44
2016-08-29T12:50:10.920Z,62.63
2016-08-29T12:51:10.177Z,62.63
2016-08-29T12:52:10.832Z,62.25
2016-08-29T12:53:11.032Z,61.86
2016-08-29T12:54:10.942Z,61.28
2016-08-29T12:55:10.746Z,61.96
2016-08-29T12:56:10.669Z,61.67